Terminal Aerodrome Forecast
Issued by NWS

Home | Current Version | Previous Version | Text Only | Print | Product List | Glossary On
Versions: 1 2 3 4 5 6 7 8 9 10 11 12 13 14 15 16 17 18
000
FTUS45 KPSR 291720
TAFIWA
TAF
KIWA 291720Z 2918/3018 VRB06KT P6SM FEW070 BKN120 BKN250
     FM292300 34006KT P6SM SCT090 SCT100 BKN200
     FM300400 13005KT P6SM SCT100=

USA.gov is the U.S. government's official web portal to all federal, state and local government web resources and services.